Groveland, New York
Current Conditions -  °F | °C
As of 10:54 PM on Wednesday 22 Oct 2014 (Local Time) from KDSV Reporting Station
Overcast Overcast  
Wind Chill: 43°   Ceiling: 1800
Heat Index: 47°   Visibility: 10mi
Dew Point: 42°   Wind: 9mph
Humidity: 83%   Direction: 340°NNW
Pressure: 30.16"   Gusts: NA
Location:  42.66°N, 77.77°W
Report Text: KDSV 230254Z AUTO 34008KT 10SM OVC018 08/06 A3016 RMK AO2 SLP225 T00830056 58008
Loading
Personal Weather Stations






























Interactive Weather Map
Tropical Storm Tracking
New forecast layout! Learn more

10-Day Weather Forecast

Advertisements
Track Severe Weather on mobile